sensor_id;sensor_type;location;lat;lon;timestamp;P1;durP1;ratioP1;P2;durP2;ratioP2
71162;SDS011;58858;50.948;6.566;2024-02-15T00:00:58;5.75;;;3.13;;
71162;SDS011;58858;50.948;6.566;2024-02-15T00:11:00;7.10;;;2.47;;
71162;SDS011;58858;50.948;6.566;2024-02-15T00:21:01;9.45;;;2.67;;
71162;SDS011;58858;50.948;6.566;2024-02-15T00:31:02;6.53;;;1.98;;
71162;SDS011;58858;50.948;6.566;2024-02-15T00:41:04;5.35;;;2.55;;
71162;SDS011;58858;50.948;6.566;2024-02-15T00:51:06;5.47;;;2.95;;
71162;SDS011;58858;50.948;6.566;2024-02-15T01:01:07;9.77;;;2.88;;
71162;SDS011;58858;50.948;6.566;2024-02-15T01:11:09;10.13;;;3.50;;
71162;SDS011;58858;50.948;6.566;2024-02-15T01:21:10;7.35;;;3.30;;
71162;SDS011;58858;50.948;6.566;2024-02-15T01:31:12;7.55;;;3.30;;
71162;SDS011;58858;50.948;6.566;2024-02-15T01:41:13;6.55;;;3.28;;
71162;SDS011;58858;50.948;6.566;2024-02-15T01:51:14;8.40;;;3.17;;
71162;SDS011;58858;50.948;6.566;2024-02-15T02:01:16;9.88;;;3.78;;
71162;SDS011;58858;50.948;6.566;2024-02-15T02:11:17;8.57;;;2.28;;
71162;SDS011;58858;50.948;6.566;2024-02-15T02:21:19;6.90;;;1.55;;
71162;SDS011;58858;50.948;6.566;2024-02-15T02:31:20;5.53;;;2.42;;
71162;SDS011;58858;50.948;6.566;2024-02-15T02:41:25;6.38;;;1.77;;
71162;SDS011;58858;50.948;6.566;2024-02-15T02:51:26;6.05;;;2.33;;
71162;SDS011;58858;50.948;6.566;2024-02-15T03:01:27;6.32;;;1.65;;
71162;SDS011;58858;50.948;6.566;2024-02-15T03:11:28;5.15;;;2.17;;
71162;SDS011;58858;50.948;6.566;2024-02-15T03:21:29;3.00;;;0.85;;
71162;SDS011;58858;50.948;6.566;2024-02-15T03:31:30;3.85;;;1.42;;
71162;SDS011;58858;50.948;6.566;2024-02-15T03:41:31;6.78;;;1.85;;
71162;SDS011;58858;50.948;6.566;2024-02-15T03:51:36;5.57;;;1.23;;
71162;SDS011;58858;50.948;6.566;2024-02-15T04:01:37;8.38;;;1.33;;
71162;SDS011;58858;50.948;6.566;2024-02-15T04:11:38;2.72;;;1.25;;
71162;SDS011;58858;50.948;6.566;2024-02-15T04:21:39;4.50;;;1.30;;
71162;SDS011;58858;50.948;6.566;2024-02-15T04:31:41;2.05;;;1.10;;
71162;SDS011;58858;50.948;6.566;2024-02-15T04:41:43;7.30;;;2.22;;
71162;SDS011;58858;50.948;6.566;2024-02-15T04:51:44;5.18;;;1.52;;
71162;SDS011;58858;50.948;6.566;2024-02-15T05:01:45;5.25;;;2.15;;
71162;SDS011;58858;50.948;6.566;2024-02-15T05:11:46;8.30;;;1.70;;
71162;SDS011;58858;50.948;6.566;2024-02-15T05:21:48;4.20;;;1.52;;
71162;SDS011;58858;50.948;6.566;2024-02-15T05:31:49;4.28;;;2.47;;
71162;SDS011;58858;50.948;6.566;2024-02-15T05:41:55;5.85;;;1.65;;
71162;SDS011;58858;50.948;6.566;2024-02-15T05:51:58;6.00;;;1.70;;
71162;SDS011;58858;50.948;6.566;2024-02-15T06:01:59;2.95;;;1.83;;
71162;SDS011;58858;50.948;6.566;2024-02-15T06:12:01;4.40;;;2.05;;
71162;SDS011;58858;50.948;6.566;2024-02-15T06:22:03;3.40;;;1.52;;
71162;SDS011;58858;50.948;6.566;2024-02-15T06:32:05;3.25;;;1.52;;
71162;SDS011;58858;50.948;6.566;2024-02-15T06:42:24;6.75;;;1.95;;
71162;SDS011;58858;50.948;6.566;2024-02-15T06:52:27;5.35;;;2.13;;
71162;SDS011;58858;50.948;6.566;2024-02-15T07:02:29;7.03;;;2.83;;
71162;SDS011;58858;50.948;6.566;2024-02-15T07:12:31;3.88;;;2.35;;
71162;SDS011;58858;50.948;6.566;2024-02-15T07:22:32;6.90;;;2.22;;
71162;SDS011;58858;50.948;6.566;2024-02-15T07:32:33;10.52;;;2.72;;
71162;SDS011;58858;50.948;6.566;2024-02-15T07:42:35;5.68;;;1.60;;
71162;SDS011;58858;50.948;6.566;2024-02-15T07:52:36;5.20;;;1.65;;
71162;SDS011;58858;50.948;6.566;2024-02-15T08:02:38;6.95;;;2.08;;
71162;SDS011;58858;50.948;6.566;2024-02-15T08:12:43;3.60;;;1.48;;
71162;SDS011;58858;50.948;6.566;2024-02-15T08:22:45;5.38;;;2.25;;
71162;SDS011;58858;50.948;6.566;2024-02-15T08:32:46;6.00;;;2.03;;
71162;SDS011;58858;50.948;6.566;2024-02-15T08:42:48;7.47;;;1.73;;
71162;SDS011;58858;50.948;6.566;2024-02-15T08:52:49;5.05;;;1.23;;
71162;SDS011;58858;50.948;6.566;2024-02-15T09:02:50;3.22;;;1.20;;
71162;SDS011;58858;50.948;6.566;2024-02-15T09:13:12;2.88;;;1.30;;
71162;SDS011;58858;50.948;6.566;2024-02-15T09:23:58;3.92;;;1.75;;
71162;SDS011;58858;50.948;6.566;2024-02-15T09:33:59;2.85;;;1.60;;
71162;SDS011;58858;50.948;6.566;2024-02-15T09:44:00;3.95;;;2.05;;
71162;SDS011;58858;50.948;6.566;2024-02-15T09:54:02;8.85;;;1.85;;
71162;SDS011;58858;50.948;6.566;2024-02-15T10:04:04;5.28;;;2.08;;
71162;SDS011;58858;50.948;6.566;2024-02-15T10:14:10;2.10;;;0.85;;
71162;SDS011;58858;50.948;6.566;2024-02-15T10:24:11;3.93;;;1.43;;
71162;SDS011;58858;50.948;6.566;2024-02-15T10:34:13;4.55;;;1.52;;
71162;SDS011;58858;50.948;6.566;2024-02-15T10:44:18;1.30;;;0.75;;
71162;SDS011;58858;50.948;6.566;2024-02-15T10:55:03;3.65;;;0.90;;
71162;SDS011;58858;50.948;6.566;2024-02-15T11:04:49;2.97;;;0.82;;
71162;SDS011;58858;50.948;6.566;2024-02-15T11:14:54;4.82;;;1.60;;
71162;SDS011;58858;50.948;6.566;2024-02-15T11:24:56;1.88;;;0.70;;
71162;SDS011;58858;50.948;6.566;2024-02-15T11:35:04;2.35;;;1.13;;
71162;SDS011;58858;50.948;6.566;2024-02-15T11:45:11;7.47;;;1.70;;
71162;SDS011;58858;50.948;6.566;2024-02-15T11:55:22;2.63;;;0.82;;
71162;SDS011;58858;50.948;6.566;2024-02-15T12:05:25;6.88;;;1.50;;
71162;SDS011;58858;50.948;6.566;2024-02-15T12:15:55;6.70;;;1.58;;
71162;SDS011;58858;50.948;6.566;2024-02-15T12:26:19;2.25;;;0.60;;
71162;SDS011;58858;50.948;6.566;2024-02-15T12:36:20;6.82;;;1.27;;
71162;SDS011;58858;50.948;6.566;2024-02-15T12:46:22;2.92;;;0.90;;
71162;SDS011;58858;50.948;6.566;2024-02-15T12:56:23;2.53;;;0.85;;
71162;SDS011;58858;50.948;6.566;2024-02-15T13:06:24;2.55;;;1.10;;
71162;SDS011;58858;50.948;6.566;2024-02-15T13:16:25;2.40;;;1.02;;
71162;SDS011;58858;50.948;6.566;2024-02-15T13:26:29;3.92;;;0.70;;
71162;SDS011;58858;50.948;6.566;2024-02-15T13:36:31;4.60;;;1.00;;
71162;SDS011;58858;50.948;6.566;2024-02-15T13:46:32;1.55;;;0.75;;
71162;SDS011;58858;50.948;6.566;2024-02-15T13:56:33;2.92;;;1.20;;
71162;SDS011;58858;50.948;6.566;2024-02-15T14:06:35;2.08;;;0.63;;
71162;SDS011;58858;50.948;6.566;2024-02-15T14:16:38;4.53;;;0.65;;
71162;SDS011;58858;50.948;6.566;2024-02-15T14:45:04;3.67;;;0.88;;
71162;SDS011;58858;50.948;6.566;2024-02-15T14:55:07;4.68;;;1.38;;
71162;SDS011;58858;50.948;6.566;2024-02-15T15:05:08;2.05;;;0.77;;
71162;SDS011;58858;50.948;6.566;2024-02-15T15:15:30;3.17;;;0.98;;
71162;SDS011;58858;50.948;6.566;2024-02-15T15:25:34;6.93;;;1.08;;
71162;SDS011;58858;50.948;6.566;2024-02-15T15:35:35;1.73;;;0.90;;
71162;SDS011;58858;50.948;6.566;2024-02-15T15:45:37;0.77;;;0.50;;
71162;SDS011;58858;50.948;6.566;2024-02-15T15:55:38;2.78;;;0.95;;
71162;SDS011;58858;50.948;6.566;2024-02-15T16:05:39;2.50;;;1.02;;
71162;SDS011;58858;50.948;6.566;2024-02-15T16:15:40;1.80;;;0.80;;
71162;SDS011;58858;50.948;6.566;2024-02-15T16:25:45;3.87;;;1.10;;
71162;SDS011;58858;50.948;6.566;2024-02-15T16:35:46;1.77;;;0.90;;
71162;SDS011;58858;50.948;6.566;2024-02-15T16:45:47;3.47;;;0.93;;
71162;SDS011;58858;50.948;6.566;2024-02-15T16:55:48;4.07;;;1.05;;
71162;SDS011;58858;50.948;6.566;2024-02-15T17:05:49;3.53;;;0.93;;
71162;SDS011;58858;50.948;6.566;2024-02-15T17:15:50;2.22;;;1.33;;
71162;SDS011;58858;50.948;6.566;2024-02-15T17:25:51;4.90;;;1.20;;
71162;SDS011;58858;50.948;6.566;2024-02-15T17:35:54;4.78;;;1.40;;
71162;SDS011;58858;50.948;6.566;2024-02-15T17:45:57;1.73;;;1.25;;
71162;SDS011;58858;50.948;6.566;2024-02-15T17:56:04;4.00;;;1.13;;
71162;SDS011;58858;50.948;6.566;2024-02-15T18:06:07;7.65;;;1.33;;
71162;SDS011;58858;50.948;6.566;2024-02-15T18:16:09;4.03;;;1.23;;
71162;SDS011;58858;50.948;6.566;2024-02-15T18:26:12;6.60;;;1.15;;
71162;SDS011;58858;50.948;6.566;2024-02-15T18:36:13;3.80;;;1.90;;
71162;SDS011;58858;50.948;6.566;2024-02-15T18:46:16;3.20;;;1.25;;
71162;SDS011;58858;50.948;6.566;2024-02-15T18:56:17;2.40;;;1.30;;
71162;SDS011;58858;50.948;6.566;2024-02-15T19:06:19;4.82;;;1.65;;
71162;SDS011;58858;50.948;6.566;2024-02-15T19:16:20;4.18;;;1.35;;
71162;SDS011;58858;50.948;6.566;2024-02-15T19:26:21;4.32;;;1.70;;
71162;SDS011;58858;50.948;6.566;2024-02-15T19:36:22;2.10;;;1.33;;
71162;SDS011;58858;50.948;6.566;2024-02-15T19:46:29;4.90;;;2.30;;
71162;SDS011;58858;50.948;6.566;2024-02-15T19:56:33;4.85;;;2.13;;
71162;SDS011;58858;50.948;6.566;2024-02-15T20:06:34;6.32;;;1.90;;
71162;SDS011;58858;50.948;6.566;2024-02-15T20:16:37;4.95;;;1.75;;
71162;SDS011;58858;50.948;6.566;2024-02-15T20:26:38;4.47;;;2.03;;
71162;SDS011;58858;50.948;6.566;2024-02-15T20:36:40;5.40;;;2.28;;
71162;SDS011;58858;50.948;6.566;2024-02-15T20:46:41;12.63;;;2.75;;
71162;SDS011;58858;50.948;6.566;2024-02-15T20:56:42;2.65;;;0.93;;
71162;SDS011;58858;50.948;6.566;2024-02-15T21:06:46;2.63;;;1.25;;
71162;SDS011;58858;50.948;6.566;2024-02-15T21:16:47;5.22;;;1.20;;
71162;SDS011;58858;50.948;6.566;2024-02-15T21:26:48;2.50;;;1.20;;
71162;SDS011;58858;50.948;6.566;2024-02-15T21:36:50;2.65;;;0.95;;
71162;SDS011;58858;50.948;6.566;2024-02-15T21:46:51;5.20;;;1.40;;
71162;SDS011;58858;50.948;6.566;2024-02-15T21:56:52;5.20;;;1.63;;
71162;SDS011;58858;50.948;6.566;2024-02-15T22:06:53;3.42;;;1.55;;
71162;SDS011;58858;50.948;6.566;2024-02-15T22:16:54;4.88;;;2.10;;
71162;SDS011;58858;50.948;6.566;2024-02-15T22:26:55;3.72;;;1.60;;
71162;SDS011;58858;50.948;6.566;2024-02-15T22:36:59;4.45;;;2.05;;
71162;SDS011;58858;50.948;6.566;2024-02-15T22:47:00;2.72;;;1.10;;
71162;SDS011;58858;50.948;6.566;2024-02-15T22:57:02;2.30;;;1.10;;
71162;SDS011;58858;50.948;6.566;2024-02-15T23:07:04;4.47;;;1.60;;
71162;SDS011;58858;50.948;6.566;2024-02-15T23:17:08;2.25;;;1.27;;
71162;SDS011;58858;50.948;6.566;2024-02-15T23:27:09;2.40;;;1.20;;
71162;SDS011;58858;50.948;6.566;2024-02-15T23:37:10;2.20;;;1.08;;
71162;SDS011;58858;50.948;6.566;2024-02-15T23:47:33;2.85;;;1.15;;
71162;SDS011;58858;50.948;6.566;2024-02-15T23:57:35;2.22;;;1.02;;
